sensor_id;sensor_type;location;lat;lon;timestamp;P1;durP1;ratioP1;P2;durP2;ratioP2
31390;SDS011;18022;45.492;11.548;2023-04-24T00:01:23;21.77;;;16.25;;
31390;SDS011;18022;45.492;11.548;2023-04-24T00:03:49;22.73;;;17.23;;
31390;SDS011;18022;45.492;11.548;2023-04-24T00:06:15;21.63;;;17.60;;
31390;SDS011;18022;45.492;11.548;2023-04-24T00:08:42;27.58;;;18.52;;
31390;SDS011;18022;45.492;11.548;2023-04-24T00:11:08;26.27;;;17.75;;
31390;SDS011;18022;45.492;11.548;2023-04-24T00:13:34;23.65;;;17.85;;
31390;SDS011;18022;45.492;11.548;2023-04-24T00:16:00;22.80;;;16.85;;
31390;SDS011;18022;45.492;11.548;2023-04-24T00:18:26;21.42;;;16.40;;
31390;SDS011;18022;45.492;11.548;2023-04-24T00:20:52;23.85;;;17.83;;
31390;SDS011;18022;45.492;11.548;2023-04-24T00:23:18;25.45;;;17.85;;
31390;SDS011;18022;45.492;11.548;2023-04-24T00:25:44;23.20;;;17.50;;
31390;SDS011;18022;45.492;11.548;2023-04-24T00:28:10;26.38;;;18.30;;
31390;SDS011;18022;45.492;11.548;2023-04-24T00:30:37;25.23;;;17.65;;
31390;SDS011;18022;45.492;11.548;2023-04-24T00:33:03;24.75;;;17.10;;
31390;SDS011;18022;45.492;11.548;2023-04-24T00:35:29;25.65;;;17.95;;
31390;SDS011;18022;45.492;11.548;2023-04-24T00:37:55;25.13;;;18.02;;
31390;SDS011;18022;45.492;11.548;2023-04-24T00:40:21;27.05;;;17.85;;
31390;SDS011;18022;45.492;11.548;2023-04-24T00:42:47;30.90;;;18.90;;
31390;SDS011;18022;45.492;11.548;2023-04-24T00:45:13;26.45;;;18.38;;
31390;SDS011;18022;45.492;11.548;2023-04-24T00:47:39;25.23;;;17.70;;
31390;SDS011;18022;45.492;11.548;2023-04-24T00:50:07;25.80;;;18.55;;
31390;SDS011;18022;45.492;11.548;2023-04-24T00:52:33;24.95;;;18.20;;
31390;SDS011;18022;45.492;11.548;2023-04-24T00:54:59;26.17;;;17.40;;
31390;SDS011;18022;45.492;11.548;2023-04-24T00:57:26;27.70;;;18.05;;
31390;SDS011;18022;45.492;11.548;2023-04-24T00:59:52;24.00;;;19.03;;
31390;SDS011;18022;45.492;11.548;2023-04-24T01:02:18;28.33;;;18.58;;
31390;SDS011;18022;45.492;11.548;2023-04-24T01:04:45;27.50;;;18.17;;
31390;SDS011;18022;45.492;11.548;2023-04-24T01:07:11;22.92;;;18.60;;
31390;SDS011;18022;45.492;11.548;2023-04-24T01:09:38;23.85;;;17.52;;
31390;SDS011;18022;45.492;11.548;2023-04-24T01:12:08;22.77;;;17.38;;
31390;SDS011;18022;45.492;11.548;2023-04-24T01:14:34;23.52;;;17.45;;
31390;SDS011;18022;45.492;11.548;2023-04-24T01:17:00;22.00;;;16.88;;
31390;SDS011;18022;45.492;11.548;2023-04-24T01:19:26;22.73;;;17.45;;
31390;SDS011;18022;45.492;11.548;2023-04-24T01:21:53;22.88;;;17.75;;
31390;SDS011;18022;45.492;11.548;2023-04-24T01:24:19;22.08;;;16.38;;
31390;SDS011;18022;45.492;11.548;2023-04-24T01:26:46;22.75;;;17.45;;
31390;SDS011;18022;45.492;11.548;2023-04-24T01:29:12;22.40;;;16.98;;
31390;SDS011;18022;45.492;11.548;2023-04-24T01:31:38;21.23;;;16.25;;
31390;SDS011;18022;45.492;11.548;2023-04-24T01:34:05;19.95;;;16.73;;
31390;SDS011;18022;45.492;11.548;2023-04-24T01:36:31;20.90;;;16.05;;
31390;SDS011;18022;45.492;11.548;2023-04-24T01:38:58;19.42;;;16.02;;
31390;SDS011;18022;45.492;11.548;2023-04-24T01:41:25;21.52;;;16.20;;
31390;SDS011;18022;45.492;11.548;2023-04-24T01:43:51;22.38;;;15.48;;
31390;SDS011;18022;45.492;11.548;2023-04-24T01:46:17;21.63;;;16.00;;
31390;SDS011;18022;45.492;11.548;2023-04-24T01:48:44;22.90;;;15.93;;
31390;SDS011;18022;45.492;11.548;2023-04-24T01:51:10;20.60;;;16.38;;
31390;SDS011;18022;45.492;11.548;2023-04-24T01:53:36;20.40;;;15.10;;
31390;SDS011;18022;45.492;11.548;2023-04-24T01:56:02;21.35;;;16.25;;
31390;SDS011;18022;45.492;11.548;2023-04-24T01:58:28;24.02;;;15.48;;
31390;SDS011;18022;45.492;11.548;2023-04-24T02:00:56;22.77;;;15.00;;
31390;SDS011;18022;45.492;11.548;2023-04-24T02:03:24;23.25;;;14.82;;
31390;SDS011;18022;45.492;11.548;2023-04-24T02:05:50;19.03;;;14.33;;
31390;SDS011;18022;45.492;11.548;2023-04-24T02:08:16;19.83;;;14.50;;
31390;SDS011;18022;45.492;11.548;2023-04-24T02:10:42;17.30;;;13.68;;
31390;SDS011;18022;45.492;11.548;2023-04-24T02:13:09;17.63;;;14.75;;
31390;SDS011;18022;45.492;11.548;2023-04-24T02:15:35;21.95;;;14.40;;
31390;SDS011;18022;45.492;11.548;2023-04-24T02:18:01;20.60;;;15.38;;
31390;SDS011;18022;45.492;11.548;2023-04-24T02:20:27;21.55;;;14.23;;
31390;SDS011;18022;45.492;11.548;2023-04-24T02:22:54;20.88;;;15.13;;
31390;SDS011;18022;45.492;11.548;2023-04-24T02:25:20;18.60;;;15.18;;
31390;SDS011;18022;45.492;11.548;2023-04-24T02:27:46;25.00;;;15.55;;
31390;SDS011;18022;45.492;11.548;2023-04-24T02:30:12;20.38;;;15.55;;
31390;SDS011;18022;45.492;11.548;2023-04-24T02:32:38;20.73;;;16.30;;
31390;SDS011;18022;45.492;11.548;2023-04-24T02:35:04;20.17;;;15.35;;
31390;SDS011;18022;45.492;11.548;2023-04-24T02:37:30;24.30;;;15.88;;
31390;SDS011;18022;45.492;11.548;2023-04-24T02:39:56;19.73;;;15.90;;
31390;SDS011;18022;45.492;11.548;2023-04-24T02:42:22;21.08;;;16.38;;
31390;SDS011;18022;45.492;11.548;2023-04-24T02:44:48;24.05;;;16.02;;
31390;SDS011;18022;45.492;11.548;2023-04-24T02:47:16;22.25;;;16.13;;
31390;SDS011;18022;45.492;11.548;2023-04-24T02:49:42;21.40;;;15.27;;
31390;SDS011;18022;45.492;11.548;2023-04-24T02:52:08;21.73;;;16.58;;
31390;SDS011;18022;45.492;11.548;2023-04-24T02:54:34;20.40;;;15.93;;
31390;SDS011;18022;45.492;11.548;2023-04-24T02:57:00;18.40;;;15.20;;
31390;SDS011;18022;45.492;11.548;2023-04-24T02:59:26;18.58;;;15.40;;
31390;SDS011;18022;45.492;11.548;2023-04-24T03:01:54;23.75;;;15.90;;
31390;SDS011;18022;45.492;11.548;2023-04-24T03:04:20;23.55;;;16.05;;
31390;SDS011;18022;45.492;11.548;2023-04-24T03:06:47;19.52;;;16.05;;
31390;SDS011;18022;45.492;11.548;2023-04-24T03:09:13;20.25;;;16.27;;
31390;SDS011;18022;45.492;11.548;2023-04-24T03:11:39;21.02;;;16.27;;
31390;SDS011;18022;45.492;11.548;2023-04-24T03:14:05;22.52;;;17.17;;
31390;SDS011;18022;45.492;11.548;2023-04-24T03:16:31;20.42;;;16.58;;
31390;SDS011;18022;45.492;11.548;2023-04-24T03:18:58;23.15;;;15.60;;
31390;SDS011;18022;45.492;11.548;2023-04-24T03:21:24;22.15;;;15.40;;
31390;SDS011;18022;45.492;11.548;2023-04-24T03:23:51;19.63;;;15.82;;
31390;SDS011;18022;45.492;11.548;2023-04-24T03:26:17;19.38;;;15.50;;
31390;SDS011;18022;45.492;11.548;2023-04-24T03:28:43;19.73;;;16.48;;
31390;SDS011;18022;45.492;11.548;2023-04-24T03:31:09;24.63;;;15.43;;
31390;SDS011;18022;45.492;11.548;2023-04-24T03:33:35;17.58;;;15.27;;
31390;SDS011;18022;45.492;11.548;2023-04-24T03:36:01;20.30;;;14.77;;
31390;SDS011;18022;45.492;11.548;2023-04-24T03:38:28;21.17;;;14.98;;
31390;SDS011;18022;45.492;11.548;2023-04-24T03:40:54;18.05;;;14.05;;
31390;SDS011;18022;45.492;11.548;2023-04-24T03:43:20;17.80;;;13.32;;
31390;SDS011;18022;45.492;11.548;2023-04-24T03:45:46;18.48;;;14.23;;
31390;SDS011;18022;45.492;11.548;2023-04-24T03:48:12;18.58;;;14.20;;
31390;SDS011;18022;45.492;11.548;2023-04-24T03:50:38;18.77;;;14.48;;
31390;SDS011;18022;45.492;11.548;2023-04-24T03:53:04;17.98;;;14.27;;
31390;SDS011;18022;45.492;11.548;2023-04-24T03:55:30;21.40;;;14.48;;
31390;SDS011;18022;45.492;11.548;2023-04-24T03:57:56;16.30;;;14.00;;
31390;SDS011;18022;45.492;11.548;2023-04-24T04:00:22;18.08;;;14.70;;
31390;SDS011;18022;45.492;11.548;2023-04-24T04:02:48;18.75;;;14.10;;
31390;SDS011;18022;45.492;11.548;2023-04-24T04:05:14;17.83;;;13.88;;
31390;SDS011;18022;45.492;11.548;2023-04-24T04:07:40;18.35;;;13.93;;
31390;SDS011;18022;45.492;11.548;2023-04-24T04:10:06;20.48;;;14.98;;
31390;SDS011;18022;45.492;11.548;2023-04-24T04:12:32;19.92;;;13.82;;
31390;SDS011;18022;45.492;11.548;2023-04-24T04:14:58;22.55;;;14.82;;
31390;SDS011;18022;45.492;11.548;2023-04-24T04:17:25;19.88;;;14.10;;
31390;SDS011;18022;45.492;11.548;2023-04-24T04:19:51;26.27;;;16.23;;
31390;SDS011;18022;45.492;11.548;2023-04-24T04:22:17;22.40;;;15.07;;
31390;SDS011;18022;45.492;11.548;2023-04-24T04:24:43;19.98;;;14.52;;
31390;SDS011;18022;45.492;11.548;2023-04-24T04:27:09;16.95;;;13.98;;
31390;SDS011;18022;45.492;11.548;2023-04-24T04:29:36;15.02;;;13.38;;
31390;SDS011;18022;45.492;11.548;2023-04-24T04:32:02;18.02;;;14.02;;
31390;SDS011;18022;45.492;11.548;2023-04-24T04:34:28;18.52;;;13.82;;
31390;SDS011;18022;45.492;11.548;2023-04-24T04:36:54;20.60;;;15.02;;
31390;SDS011;18022;45.492;11.548;2023-04-24T04:39:20;17.52;;;14.02;;
31390;SDS011;18022;45.492;11.548;2023-04-24T04:41:46;15.18;;;13.63;;
31390;SDS011;18022;45.492;11.548;2023-04-24T04:44:14;17.73;;;14.10;;
31390;SDS011;18022;45.492;11.548;2023-04-24T04:46:40;19.95;;;15.40;;
31390;SDS011;18022;45.492;11.548;2023-04-24T04:49:06;17.85;;;13.60;;
31390;SDS011;18022;45.492;11.548;2023-04-24T04:51:33;15.88;;;13.60;;
31390;SDS011;18022;45.492;11.548;2023-04-24T04:53:59;16.70;;;14.45;;
31390;SDS011;18022;45.492;11.548;2023-04-24T04:56:26;17.83;;;13.98;;
31390;SDS011;18022;45.492;11.548;2023-04-24T04:58:52;18.63;;;14.48;;
31390;SDS011;18022;45.492;11.548;2023-04-24T05:01:18;18.55;;;14.65;;
31390;SDS011;18022;45.492;11.548;2023-04-24T05:03:44;15.52;;;13.85;;
31390;SDS011;18022;45.492;11.548;2023-04-24T05:06:10;18.50;;;14.88;;
31390;SDS011;18022;45.492;11.548;2023-04-24T05:08:36;19.02;;;15.15;;
31390;SDS011;18022;45.492;11.548;2023-04-24T05:11:02;17.73;;;14.82;;
31390;SDS011;18022;45.492;11.548;2023-04-24T05:13:28;19.20;;;15.15;;
31390;SDS011;18022;45.492;11.548;2023-04-24T05:15:54;23.38;;;15.07;;
31390;SDS011;18022;45.492;11.548;2023-04-24T05:18:20;21.15;;;15.77;;
31390;SDS011;18022;45.492;11.548;2023-04-24T05:20:46;20.70;;;15.65;;
31390;SDS011;18022;45.492;11.548;2023-04-24T05:23:12;19.75;;;15.30;;
31390;SDS011;18022;45.492;11.548;2023-04-24T05:25:38;17.95;;;15.57;;
31390;SDS011;18022;45.492;11.548;2023-04-24T05:28:06;22.20;;;15.25;;
31390;SDS011;18022;45.492;11.548;2023-04-24T05:30:32;18.48;;;14.77;;
31390;SDS011;18022;45.492;11.548;2023-04-24T05:32:58;16.45;;;14.50;;
31390;SDS011;18022;45.492;11.548;2023-04-24T05:35:24;17.70;;;14.63;;
31390;SDS011;18022;45.492;11.548;2023-04-24T05:37:50;19.77;;;15.77;;
31390;SDS011;18022;45.492;11.548;2023-04-24T05:40:16;19.73;;;15.82;;
31390;SDS011;18022;45.492;11.548;2023-04-24T05:42:42;17.83;;;15.32;;
31390;SDS011;18022;45.492;11.548;2023-04-24T05:45:08;18.45;;;15.13;;
31390;SDS011;18022;45.492;11.548;2023-04-24T05:47:39;18.42;;;14.30;;
31390;SDS011;18022;45.492;11.548;2023-04-24T05:50:05;18.88;;;14.93;;
31390;SDS011;18022;45.492;11.548;2023-04-24T05:52:32;17.45;;;14.32;;
31390;SDS011;18022;45.492;11.548;2023-04-24T05:54:58;15.82;;;12.73;;
31390;SDS011;18022;45.492;11.548;2023-04-24T05:57:24;13.27;;;11.65;;
31390;SDS011;18022;45.492;11.548;2023-04-24T05:59:50;13.38;;;10.60;;
31390;SDS011;18022;45.492;11.548;2023-04-24T06:02:16;11.43;;;9.43;;
31390;SDS011;18022;45.492;11.548;2023-04-24T06:04:42;10.80;;;9.05;;
31390;SDS011;18022;45.492;11.548;2023-04-24T06:07:09;8.95;;;8.05;;
31390;SDS011;18022;45.492;11.548;2023-04-24T06:09:35;9.60;;;8.00;;
31390;SDS011;18022;45.492;11.548;2023-04-24T06:12:02;7.97;;;7.18;;
31390;SDS011;18022;45.492;11.548;2023-04-24T06:14:28;10.73;;;7.65;;
31390;SDS011;18022;45.492;11.548;2023-04-24T06:16:54;8.15;;;7.30;;
31390;SDS011;18022;45.492;11.548;2023-04-24T06:19:20;9.35;;;7.55;;
31390;SDS011;18022;45.492;11.548;2023-04-24T06:21:46;10.35;;;7.80;;
31390;SDS011;18022;45.492;11.548;2023-04-24T06:24:14;7.28;;;6.57;;
31390;SDS011;18022;45.492;11.548;2023-04-24T06:26:41;7.15;;;6.45;;
31390;SDS011;18022;45.492;11.548;2023-04-24T06:29:07;7.85;;;6.82;;
31390;SDS011;18022;45.492;11.548;2023-04-24T06:31:33;9.15;;;6.50;;
31390;SDS011;18022;45.492;11.548;2023-04-24T06:34:02;8.05;;;6.20;;
31390;SDS011;18022;45.492;11.548;2023-04-24T06:36:28;7.05;;;6.35;;
31390;SDS011;18022;45.492;11.548;2023-04-24T06:38:54;10.05;;;6.07;;
31390;SDS011;18022;45.492;11.548;2023-04-24T06:41:20;7.32;;;5.82;;
31390;SDS011;18022;45.492;11.548;2023-04-24T06:43:46;5.85;;;5.25;;
31390;SDS011;18022;45.492;11.548;2023-04-24T06:46:13;5.55;;;5.05;;
31390;SDS011;18022;45.492;11.548;2023-04-24T06:48:39;5.80;;;4.95;;
31390;SDS011;18022;45.492;11.548;2023-04-24T06:51:06;4.55;;;4.07;;
31390;SDS011;18022;45.492;11.548;2023-04-24T06:53:32;4.38;;;3.60;;
31390;SDS011;18022;45.492;11.548;2023-04-24T06:55:58;2.03;;;1.83;;
31390;SDS011;18022;45.492;11.548;2023-04-24T06:58:24;2.30;;;2.10;;
31390;SDS011;18022;45.492;11.548;2023-04-24T07:00:50;3.40;;;2.50;;
31390;SDS011;18022;45.492;11.548;2023-04-24T07:03:16;2.10;;;1.92;;
31390;SDS011;18022;45.492;11.548;2023-04-24T07:05:42;3.28;;;1.38;;
31390;SDS011;18022;45.492;11.548;2023-04-24T07:08:09;1.38;;;1.27;;
31390;SDS011;18022;45.492;11.548;2023-04-24T07:10:36;2.00;;;1.10;;
31390;SDS011;18022;45.492;11.548;2023-04-24T07:13:02;0.95;;;0.95;;
31390;SDS011;18022;45.492;11.548;2023-04-24T07:15:29;1.65;;;0.80;;
31390;SDS011;18022;45.492;11.548;2023-04-24T07:17:55;1.10;;;0.70;;
31390;SDS011;18022;45.492;11.548;2023-04-24T07:20:21;0.45;;;0.32;;
31390;SDS011;18022;45.492;11.548;2023-04-24T07:22:47;0.28;;;0.28;;
31390;SDS011;18022;45.492;11.548;2023-04-24T07:25:14;0.57;;;0.30;;
31390;SDS011;18022;45.492;11.548;2023-04-24T07:27:40;1.13;;;0.38;;
31390;SDS011;18022;45.492;11.548;2023-04-24T07:30:06;0.40;;;0.40;;
31390;SDS011;18022;45.492;11.548;2023-04-24T07:32:33;0.73;;;0.60;;
31390;SDS011;18022;45.492;11.548;2023-04-24T07:35:00;1.17;;;0.35;;
31390;SDS011;18022;45.492;11.548;2023-04-24T07:37:26;1.23;;;0.40;;
31390;SDS011;18022;45.492;11.548;2023-04-24T07:39:52;0.40;;;0.38;;
31390;SDS011;18022;45.492;11.548;2023-04-24T07:42:18;0.30;;;0.30;;
31390;SDS011;18022;45.492;11.548;2023-04-24T07:44:44;0.90;;;0.60;;
31390;SDS011;18022;45.492;11.548;2023-04-24T07:47:11;1.27;;;0.80;;
31390;SDS011;18022;45.492;11.548;2023-04-24T07:49:37;1.48;;;0.90;;
31390;SDS011;18022;45.492;11.548;2023-04-24T07:52:03;1.15;;;1.02;;
31390;SDS011;18022;45.492;11.548;2023-04-24T07:54:29;1.13;;;0.93;;
31390;SDS011;18022;45.492;11.548;2023-04-24T07:56:55;1.30;;;1.08;;
31390;SDS011;18022;45.492;11.548;2023-04-24T07:59:21;1.38;;;1.17;;
31390;SDS011;18022;45.492;11.548;2023-04-24T08:01:48;5.15;;;1.00;;
31390;SDS011;18022;45.492;11.548;2023-04-24T08:04:14;0.70;;;0.70;;
31390;SDS011;18022;45.492;11.548;2023-04-24T08:06:40;0.73;;;0.73;;
31390;SDS011;18022;45.492;11.548;2023-04-24T08:09:06;2.17;;;0.88;;
31390;SDS011;18022;45.492;11.548;2023-04-24T08:11:32;1.85;;;0.90;;
31390;SDS011;18022;45.492;11.548;2023-04-24T08:13:58;4.10;;;1.23;;
31390;SDS011;18022;45.492;11.548;2023-04-24T08:16:24;0.98;;;0.90;;
31390;SDS011;18022;45.492;11.548;2023-04-24T08:18:51;1.27;;;1.17;;
31390;SDS011;18022;45.492;11.548;2023-04-24T08:21:17;0.85;;;0.80;;
31390;SDS011;18022;45.492;11.548;2023-04-24T08:23:44;1.73;;;0.90;;
31390;SDS011;18022;45.492;11.548;2023-04-24T08:26:10;0.80;;;0.73;;
31390;SDS011;18022;45.492;11.548;2023-04-24T08:28:37;0.80;;;0.70;;
31390;SDS011;18022;45.492;11.548;2023-04-24T08:31:03;3.15;;;1.15;;
31390;SDS011;18022;45.492;11.548;2023-04-24T08:33:29;0.98;;;0.60;;
31390;SDS011;18022;45.492;11.548;2023-04-24T08:36:00;0.65;;;0.60;;
31390;SDS011;18022;45.492;11.548;2023-04-24T08:38:26;1.65;;;0.55;;
31390;SDS011;18022;45.492;11.548;2023-04-24T08:40:52;0.88;;;0.60;;
31390;SDS011;18022;45.492;11.548;2023-04-24T08:43:18;1.60;;;0.35;;
31390;SDS011;18022;45.492;11.548;2023-04-24T08:45:48;0.68;;;0.30;;
31390;SDS011;18022;45.492;11.548;2023-04-24T08:48:14;0.30;;;0.30;;
31390;SDS011;18022;45.492;11.548;2023-04-24T08:50:41;1.50;;;0.70;;
31390;SDS011;18022;45.492;11.548;2023-04-24T08:53:08;0.85;;;0.40;;
31390;SDS011;18022;45.492;11.548;2023-04-24T08:55:34;0.63;;;0.60;;
31390;SDS011;18022;45.492;11.548;2023-04-24T08:58:01;0.50;;;0.50;;
31390;SDS011;18022;45.492;11.548;2023-04-24T09:00:28;0.28;;;0.20;;
31390;SDS011;18022;45.492;11.548;2023-04-24T09:02:54;0.40;;;0.40;;
31390;SDS011;18022;45.492;11.548;2023-04-24T09:05:21;0.50;;;0.30;;
31390;SDS011;18022;45.492;11.548;2023-04-24T09:10:15;3.20;;;0.57;;
31390;SDS011;18022;45.492;11.548;2023-04-24T09:12:41;5.40;;;4.85;;
31390;SDS011;18022;45.492;11.548;2023-04-24T09:15:07;10.18;;;7.32;;
31390;SDS011;18022;45.492;11.548;2023-04-24T09:17:34;3.33;;;1.98;;
31390;SDS011;18022;45.492;11.548;2023-04-24T09:20:00;0.60;;;0.60;;
31390;SDS011;18022;45.492;11.548;2023-04-24T09:22:29;2.63;;;1.00;;
31390;SDS011;18022;45.492;11.548;2023-04-24T09:25:05;2.15;;;1.10;;
31390;SDS011;18022;45.492;11.548;2023-04-24T09:27:32;2.28;;;0.90;;
31390;SDS011;18022;45.492;11.548;2023-04-24T09:29:59;2.42;;;1.20;;
31390;SDS011;18022;45.492;11.548;2023-04-24T09:32:25;1.95;;;1.20;;
31390;SDS011;18022;45.492;11.548;2023-04-24T09:37:38;3.08;;;1.63;;
31390;SDS011;18022;45.492;11.548;2023-04-24T09:40:17;3.00;;;2.80;;
31390;SDS011;18022;45.492;11.548;2023-04-24T09:42:51;4.20;;;3.90;;
31390;SDS011;18022;45.492;11.548;2023-04-24T09:45:18;4.72;;;4.20;;
31390;SDS011;18022;45.492;11.548;2023-04-24T09:47:44;4.70;;;4.15;;
31390;SDS011;18022;45.492;11.548;2023-04-24T09:50:14;4.00;;;3.67;;
31390;SDS011;18022;45.492;11.548;2023-04-24T09:52:44;4.10;;;3.35;;
31390;SDS011;18022;45.492;11.548;2023-04-24T09:55:12;3.88;;;2.90;;
31390;SDS011;18022;45.492;11.548;2023-04-24T09:57:46;2.93;;;2.73;;
31390;SDS011;18022;45.492;11.548;2023-04-24T10:00:13;2.15;;;2.00;;
31390;SDS011;18022;45.492;11.548;2023-04-24T10:02:39;3.97;;;2.25;;
31390;SDS011;18022;45.492;11.548;2023-04-24T10:05:05;6.65;;;5.20;;
31390;SDS011;18022;45.492;11.548;2023-04-24T10:07:32;1.58;;;1.40;;
31390;SDS011;18022;45.492;11.548;2023-04-24T10:09:58;5.68;;;1.10;;
31390;SDS011;18022;45.492;11.548;2023-04-24T10:12:25;0.80;;;0.80;;
31390;SDS011;18022;45.492;11.548;2023-04-24T10:14:51;1.35;;;1.15;;
31390;SDS011;18022;45.492;11.548;2023-04-24T10:17:18;0.77;;;0.77;;
31390;SDS011;18022;45.492;11.548;2023-04-24T10:19:45;2.70;;;0.80;;
31390;SDS011;18022;45.492;11.548;2023-04-24T10:22:12;2.83;;;0.60;;
31390;SDS011;18022;45.492;11.548;2023-04-24T10:24:38;0.55;;;0.50;;
31390;SDS011;18022;45.492;11.548;2023-04-24T10:27:04;0.30;;;0.30;;
31390;SDS011;18022;45.492;11.548;2023-04-24T10:29:31;0.20;;;0.20;;
31390;SDS011;18022;45.492;11.548;2023-04-24T10:31:59;0.20;;;0.20;;
31390;SDS011;18022;45.492;11.548;2023-04-24T10:34:26;0.30;;;0.20;;
31390;SDS011;18022;45.492;11.548;2023-04-24T10:36:54;0.25;;;0.25;;
31390;SDS011;18022;45.492;11.548;2023-04-24T10:39:21;0.65;;;0.30;;
31390;SDS011;18022;45.492;11.548;2023-04-24T10:41:48;0.40;;;0.40;;
31390;SDS011;18022;45.492;11.548;2023-04-24T10:44:15;0.50;;;0.30;;
31390;SDS011;18022;45.492;11.548;2023-04-24T10:46:45;0.30;;;0.30;;
31390;SDS011;18022;45.492;11.548;2023-04-24T10:49:13;0.47;;;0.47;;
31390;SDS011;18022;45.492;11.548;2023-04-24T10:56:50;0.80;;;0.35;;
31390;SDS011;18022;45.492;11.548;2023-04-24T10:59:26;1.60;;;1.45;;
31390;SDS011;18022;45.492;11.548;2023-04-24T11:01:53;0.88;;;0.45;;
31390;SDS011;18022;45.492;11.548;2023-04-24T11:04:29;4.55;;;2.85;;
31390;SDS011;18022;45.492;11.548;2023-04-24T11:06:56;0.60;;;0.60;;
31390;SDS011;18022;45.492;11.548;2023-04-24T11:09:22;0.65;;;0.50;;
31390;SDS011;18022;45.492;11.548;2023-04-24T11:11:53;0.50;;;0.50;;
31390;SDS011;18022;45.492;11.548;2023-04-24T11:14:28;0.52;;;0.50;;
31390;SDS011;18022;45.492;11.548;2023-04-24T11:16:54;0.57;;;0.57;;
31390;SDS011;18022;45.492;11.548;2023-04-24T11:19:24;1.13;;;0.73;;
31390;SDS011;18022;45.492;11.548;2023-04-24T11:22:03;0.77;;;0.50;;
31390;SDS011;18022;45.492;11.548;2023-04-24T11:34:49;1.95;;;1.77;;
31390;SDS011;18022;45.492;11.548;2023-04-24T11:37:15;2.33;;;1.90;;
31390;SDS011;18022;45.492;11.548;2023-04-24T11:39:42;2.05;;;1.85;;
31390;SDS011;18022;45.492;11.548;2023-04-24T11:42:12;2.20;;;1.98;;
31390;SDS011;18022;45.492;11.548;2023-04-24T11:44:40;2.45;;;1.52;;
31390;SDS011;18022;45.492;11.548;2023-04-24T11:47:07;1.30;;;1.20;;
31390;SDS011;18022;45.492;11.548;2023-04-24T11:49:36;2.07;;;1.97;;
31390;SDS011;18022;45.492;11.548;2023-04-24T11:52:02;2.45;;;1.90;;
31390;SDS011;18022;45.492;11.548;2023-04-24T11:54:28;3.20;;;2.47;;
31390;SDS011;18022;45.492;11.548;2023-04-24T11:56:55;2.95;;;2.30;;
31390;SDS011;18022;45.492;11.548;2023-04-24T11:59:21;3.47;;;2.05;;
31390;SDS011;18022;45.492;11.548;2023-04-24T12:01:48;1.95;;;1.75;;
31390;SDS011;18022;45.492;11.548;2023-04-24T12:04:15;3.83;;;2.35;;
31390;SDS011;18022;45.492;11.548;2023-04-24T12:07:03;2.57;;;2.37;;
31390;SDS011;18022;45.492;11.548;2023-04-24T12:09:46;4.88;;;2.28;;
31390;SDS011;18022;45.492;11.548;2023-04-24T12:12:12;2.83;;;2.63;;
31390;SDS011;18022;45.492;11.548;2023-04-24T12:14:49;2.75;;;2.55;;
31390;SDS011;18022;45.492;11.548;2023-04-24T12:17:15;3.67;;;3.38;;
31390;SDS011;18022;45.492;11.548;2023-04-24T12:19:47;5.15;;;2.95;;
31390;SDS011;18022;45.492;11.548;2023-04-24T12:22:15;2.40;;;2.20;;
31390;SDS011;18022;45.492;11.548;2023-04-24T12:27:23;3.00;;;2.75;;
31390;SDS011;18022;45.492;11.548;2023-04-24T12:29:52;3.22;;;2.88;;
31390;SDS011;18022;45.492;11.548;2023-04-24T12:32:19;3.05;;;2.70;;
31390;SDS011;18022;45.492;11.548;2023-04-24T12:34:45;2.80;;;2.60;;
31390;SDS011;18022;45.492;11.548;2023-04-24T12:37:11;5.50;;;3.45;;
31390;SDS011;18022;45.492;11.548;2023-04-24T12:39:37;2.78;;;2.58;;
31390;SDS011;18022;45.492;11.548;2023-04-24T12:42:03;4.07;;;2.50;;
31390;SDS011;18022;45.492;11.548;2023-04-24T12:44:30;4.30;;;2.60;;
31390;SDS011;18022;45.492;11.548;2023-04-24T12:46:56;4.78;;;2.88;;
31390;SDS011;18022;45.492;11.548;2023-04-24T12:49:22;4.07;;;2.70;;
31390;SDS011;18022;45.492;11.548;2023-04-24T12:51:48;2.92;;;2.50;;
31390;SDS011;18022;45.492;11.548;2023-04-24T12:54:15;4.78;;;2.40;;
31390;SDS011;18022;45.492;11.548;2023-04-24T12:56:41;2.38;;;2.10;;
31390;SDS011;18022;45.492;11.548;2023-04-24T12:59:07;2.45;;;2.25;;
31390;SDS011;18022;45.492;11.548;2023-04-24T13:01:33;2.42;;;2.22;;
31390;SDS011;18022;45.492;11.548;2023-04-24T13:03:59;2.58;;;2.38;;
31390;SDS011;18022;45.492;11.548;2023-04-24T13:06:25;2.40;;;2.20;;
31390;SDS011;18022;45.492;11.548;2023-04-24T13:08:51;2.42;;;2.22;;
31390;SDS011;18022;45.492;11.548;2023-04-24T13:11:17;3.42;;;2.20;;
31390;SDS011;18022;45.492;11.548;2023-04-24T13:13:43;5.05;;;2.75;;
31390;SDS011;18022;45.492;11.548;2023-04-24T13:16:10;4.57;;;2.50;;
31390;SDS011;18022;45.492;11.548;2023-04-24T13:18:36;5.28;;;2.65;;
31390;SDS011;18022;45.492;11.548;2023-04-24T13:21:02;4.35;;;2.25;;
31390;SDS011;18022;45.492;11.548;2023-04-24T13:23:28;2.80;;;2.50;;
31390;SDS011;18022;45.492;11.548;2023-04-24T13:25:54;2.80;;;2.60;;
31390;SDS011;18022;45.492;11.548;2023-04-24T13:28:23;3.17;;;2.35;;
31390;SDS011;18022;45.492;11.548;2023-04-24T13:30:50;3.03;;;2.80;;
31390;SDS011;18022;45.492;11.548;2023-04-24T13:33:16;5.75;;;2.30;;
31390;SDS011;18022;45.492;11.548;2023-04-24T13:35:42;3.95;;;2.80;;
31390;SDS011;18022;45.492;11.548;2023-04-24T13:38:08;3.28;;;2.22;;
31390;SDS011;18022;45.492;11.548;2023-04-24T13:40:34;3.40;;;2.90;;
31390;SDS011;18022;45.492;11.548;2023-04-24T13:43:01;2.92;;;2.72;;
31390;SDS011;18022;45.492;11.548;2023-04-24T13:45:27;3.13;;;2.15;;
31390;SDS011;18022;45.492;11.548;2023-04-24T13:47:53;3.50;;;2.47;;
31390;SDS011;18022;45.492;11.548;2023-04-24T13:50:19;2.55;;;2.30;;
31390;SDS011;18022;45.492;11.548;2023-04-24T13:52:46;3.80;;;2.60;;
31390;SDS011;18022;45.492;11.548;2023-04-24T13:55:12;2.67;;;2.30;;
31390;SDS011;18022;45.492;11.548;2023-04-24T13:57:38;3.22;;;2.92;;
31390;SDS011;18022;45.492;11.548;2023-04-24T14:00:04;4.68;;;3.95;;
31390;SDS011;18022;45.492;11.548;2023-04-24T14:02:31;4.40;;;4.00;;
31390;SDS011;18022;45.492;11.548;2023-04-24T14:04:57;3.85;;;3.50;;
31390;SDS011;18022;45.492;11.548;2023-04-24T14:07:23;3.92;;;3.60;;
31390;SDS011;18022;45.492;11.548;2023-04-24T14:09:49;7.68;;;4.10;;
31390;SDS011;18022;45.492;11.548;2023-04-24T14:12:16;4.78;;;3.90;;
31390;SDS011;18022;45.492;11.548;2023-04-24T14:14:45;3.92;;;3.47;;
31390;SDS011;18022;45.492;11.548;2023-04-24T14:17:12;4.53;;;4.13;;
31390;SDS011;18022;45.492;11.548;2023-04-24T14:19:38;4.35;;;3.97;;
31390;SDS011;18022;45.492;11.548;2023-04-24T14:22:04;5.05;;;4.35;;
31390;SDS011;18022;45.492;11.548;2023-04-24T14:24:30;4.57;;;3.95;;
31390;SDS011;18022;45.492;11.548;2023-04-24T14:26:56;4.80;;;4.20;;
31390;SDS011;18022;45.492;11.548;2023-04-24T14:29:23;4.13;;;3.72;;
31390;SDS011;18022;45.492;11.548;2023-04-24T14:31:50;5.85;;;3.42;;
31390;SDS011;18022;45.492;11.548;2023-04-24T14:34:17;4.30;;;3.80;;
31390;SDS011;18022;45.492;11.548;2023-04-24T14:36:43;4.60;;;3.92;;
31390;SDS011;18022;45.492;11.548;2023-04-24T14:39:09;4.68;;;3.50;;
31390;SDS011;18022;45.492;11.548;2023-04-24T14:41:35;5.68;;;3.80;;
31390;SDS011;18022;45.492;11.548;2023-04-24T14:44:02;3.28;;;2.97;;